Langara, Canada
Current Conditions -  °F | °C
As of 4:12 PM on Thursday 18 Dec 2014 (Local Time) from CZMT Reporting Station
Heavy Rain Heavy Rain  
Wind Chill: 35°   Ceiling: 600
Heat Index: 43°   Visibility: 1.2mi
Dew Point: 39°   Wind: 17mph
Humidity: 87%   Direction: 170°S
Pressure: 29.26"   Gusts: 26mph
Location:  54.23°N, 133°W
Report Text: CZMT 190012Z 17015G23KT 1 1/4SM +RA BR OVC006 06/04 A2926 RMK ST8 CIG VRB 5-7 SLP908
Loading
Personal Weather Stations






























Interactive Weather Map New forecast layout! Learn more

10-Day Weather Forecast

Advertisements
Track Severe Weather on mobile